Terminal Aerodrome Forecast
Issued by NWS

Home | Current Version | Previous Version | Text Only | Print | Product List | Glossary On
Versions: 1 2 3 4 5 6 7 8 9 10 11 12 13 14 15 16 17 18 19 20 21 22 23 24 25 26 27 28
000
FTUS45 KBOI 211727
TAFBKE
TAF
KBKE 211727Z 2118/2218 13012KT P6SM -RA OVC040
     FM212000 11015KT 6SM -RA BR OVC030
     FM220100 11012G22KT P6SM VCSH BKN035 OVC050
     FM220800 11014KT P6SM SCT040 BKN080=

USA.gov is the U.S. government's official web portal to all federal, state and local government web resources and services.